Time;durP1;ratioP1;P1;durP2;ratioP2;P2;SDS_P1;SDS_P2;PMS_P1;PMS_P2;Temp;Humidity;BMP_temperature;BMP_pressure;BME280_temperature;BME280_humidity;BME280_pressure;Samples;Min_cycle;Max_cycle;Signal;HPM_P1;HPM_P2
2023/03/07 00:01:26;;;;;;;;;;;;;;;-0.82;66.57;95896.15;108662;1254;99122;-72
2023/03/07 00:03:54;;;;;;;;;;;;;;;-0.77;66.51;95897.67;108646;1253;97047;-72
2023/03/07 00:06:22;;;;;;;;;;;;;;;-0.74;66.60;95898.79;108669;1253;96902;-73
2023/03/07 00:08:51;;;;;;;;;;;;;;;-0.73;66.57;95893.31;108682;1256;104007;-72
2023/03/07 00:11:19;;;;;;;;;;;;;;;-0.71;66.53;95899.77;108680;1254;101227;-72
2023/03/07 00:13:48;;;;;;;;;;;;;;;-0.67;66.47;95896.70;108594;1254;100047;-73
2023/03/07 00:16:17;;;;;;;;;;;;;;;-0.70;66.51;95893.80;108665;1254;97247;-76
2023/03/07 00:18:45;;;;;;;;;;;;;;;-0.74;66.53;95887.92;108716;1254;96948;-74
2023/03/07 00:21:15;;;;;;;;;;;;;;;-0.73;66.53;95889.64;108685;1254;104526;-75
2023/03/07 00:23:44;;;;;;;;;;;;;;;-0.75;66.44;95892.17;108647;1253;101267;-73
2023/03/07 00:26:13;;;;;;;;;;;;;;;-0.75;66.43;95890.78;108688;1250;99933;-73
2023/03/07 00:28:41;;;;;;;;;;;;;;;-0.76;66.49;95887.38;108983;1249;96819;-73
2023/03/07 00:31:10;;;;;;;;;;;;;;;-0.81;66.50;95890.88;109014;1250;97072;-73
2023/03/07 00:33:39;;;;;;;;;;;;;;;-0.81;66.64;95883.50;109002;1249;105103;-73
2023/03/07 00:36:08;;;;;;;;;;;;;;;-0.86;66.64;95883.91;108998;1251;101393;-73
2023/03/07 00:38:37;;;;;;;;;;;;;;;-0.94;66.62;95885.91;109025;1250;99862;-75
2023/03/07 00:41:06;;;;;;;;;;;;;;;-0.96;66.65;95881.20;109015;1249;97171;-74
2023/03/07 00:43:35;;;;;;;;;;;;;;;-0.98;66.62;95876.73;109049;1250;96972;-73
2023/03/07 00:46:04;;;;;;;;;;;;;;;-1.00;66.68;95875.88;109031;1250;104984;-76
2023/03/07 00:48:37;;;;;;;;;;;;;;;-1.02;66.68;95877.91;108997;1251;100280;-74
2023/03/07 00:51:06;;;;;;;;;;;;;;;-1.08;66.81;95871.42;108973;1251;99838;-74
2023/03/07 00:53:34;;;;;;;;;;;;;;;-1.15;66.89;95872.73;109010;1250;96910;-73
2023/03/07 00:56:23;;;;;;;;;;;;;;;-1.16;66.93;95874.42;109073;1250;97270;-73
2023/03/07 00:58:51;;;;;;;;;;;;;;;-1.16;67.00;95870.74;109013;1250;105053;-73
2023/03/07 01:01:20;;;;;;;;;;;;;;;-1.20;66.94;95870.14;109039;1251;101564;-76
2023/03/07 01:03:52;;;;;;;;;;;;;;;-1.22;67.01;95868.23;108930;1250;99853;-77
2023/03/07 01:06:21;;;;;;;;;;;;;;;-1.23;67.18;95867.04;108613;1251;96972;-73
2023/03/07 01:08:49;;;;;;;;;;;;;;;-1.30;67.31;95866.02;109045;1250;96943;-72
2023/03/07 01:11:17;;;;;;;;;;;;;;;-1.32;67.35;95865.55;109036;1250;105291;-73
2023/03/07 01:13:45;;;;;;;;;;;;;;;-1.33;67.33;95862.99;108737;1250;100347;-72
2023/03/07 01:16:15;;;;;;;;;;;;;;;-1.34;67.33;95854.49;109017;1250;99897;-73
2023/03/07 01:18:44;;;;;;;;;;;;;;;-1.37;67.41;95849.75;108649;1251;97265;-73
2023/03/07 01:21:13;;;;;;;;;;;;;;;-1.42;67.55;95844.11;108913;1251;96888;-74
2023/03/07 01:23:41;;;;;;;;;;;;;;;-1.42;67.59;95843.65;108608;1251;104556;-73
2023/03/07 01:26:13;;;;;;;;;;;;;;;-1.40;67.61;95845.89;108854;1251;101365;-75
2023/03/07 01:28:41;;;;;;;;;;;;;;;-1.38;67.59;95850.25;108894;1251;99695;-73
2023/03/07 01:31:10;;;;;;;;;;;;;;;-1.38;67.54;95843.34;108906;1251;97284;-75
2023/03/07 01:33:38;;;;;;;;;;;;;;;-1.41;67.44;95840.17;108963;1251;97145;-74
2023/03/07 01:36:28;;;;;;;;;;;;;;;-1.46;67.47;95838.83;108933;1251;104005;-75
2023/03/07 01:39:09;;;;;;;;;;;;;;;-1.51;67.65;95837.00;108862;1251;101131;-73
2023/03/07 01:41:37;;;;;;;;;;;;;;;-1.52;67.75;95837.01;108549;1253;101007;-73
2023/03/07 01:44:13;;;;;;;;;;;;;;;-1.54;67.76;95834.23;108798;1251;97090;-76
2023/03/07 01:46:43;;;;;;;;;;;;;;;-1.56;67.71;95827.80;108859;1251;97004;-73
2023/03/07 01:49:13;;;;;;;;;;;;;;;-1.59;67.82;95826.14;108870;1251;104770;-73
2023/03/07 01:51:43;;;;;;;;;;;;;;;-1.59;67.89;95826.27;108885;1251;101435;-77
2023/03/07 01:54:13;;;;;;;;;;;;;;;-1.57;67.79;95825.60;108820;1251;100029;-72
2023/03/07 01:56:43;;;;;;;;;;;;;;;-1.58;67.80;95823.35;108669;1251;96919;-74
2023/03/07 01:59:11;;;;;;;;;;;;;;;-1.59;67.81;95825.12;108713;1251;97057;-73
2023/03/07 02:01:40;;;;;;;;;;;;;;;-1.63;67.75;95828.90;108868;1251;106051;-73
2023/03/07 02:04:23;;;;;;;;;;;;;;;-1.66;68.02;95829.48;108892;1251;101251;-72
2023/03/07 02:06:51;;;;;;;;;;;;;;;-1.67;68.25;95830.84;108878;1251;100003;-73
2023/03/07 02:09:21;;;;;;;;;;;;;;;-1.68;68.30;95824.42;108840;1251;96885;-75
2023/03/07 02:11:49;;;;;;;;;;;;;;;-1.68;68.44;95825.78;108925;1251;96949;-76
2023/03/07 02:14:17;;;;;;;;;;;;;;;-1.67;68.43;95824.62;108907;1251;105230;-73
2023/03/07 02:16:46;;;;;;;;;;;;;;;-1.67;68.46;95827.63;108953;1249;101311;-75
2023/03/07 02:19:25;;;;;;;;;;;;;;;-1.66;68.47;95827.20;108997;1251;99575;-73
2023/03/07 02:22:12;;;;;;;;;;;;;;;-1.65;68.57;95827.23;108970;1251;98415;-73
2023/03/07 02:24:55;;;;;;;;;;;;;;;-1.68;68.44;95827.16;108970;1251;97062;-73
2023/03/07 02:27:27;;;;;;;;;;;;;;;-1.68;68.53;95829.44;109036;1249;113737;-73
2023/03/07 02:29:55;;;;;;;;;;;;;;;-1.68;68.56;95831.93;109039;1249;101018;-73
2023/03/07 02:32:23;;;;;;;;;;;;;;;-1.69;68.49;95831.68;109017;1250;99880;-73
2023/03/07 02:34:52;;;;;;;;;;;;;;;-1.68;68.43;95834.80;108966;1250;96871;-76
2023/03/07 02:37:28;;;;;;;;;;;;;;;-1.68;68.36;95835.48;109077;1251;96945;-73
2023/03/07 02:39:57;;;;;;;;;;;;;;;-1.68;68.37;95833.27;108909;1250;105113;-73
2023/03/07 02:42:27;;;;;;;;;;;;;;;-1.69;68.29;95832.48;109055;1250;101465;-73
2023/03/07 02:44:57;;;;;;;;;;;;;;;-1.70;68.21;95831.83;109017;1251;99556;-74
2023/03/07 02:47:25;;;;;;;;;;;;;;;-1.75;68.28;95828.54;109017;1251;97050;-72
2023/03/07 02:49:53;;;;;;;;;;;;;;;-1.79;68.46;95824.91;109029;1251;97154;-73
2023/03/07 02:52:21;;;;;;;;;;;;;;;-1.81;68.52;95823.13;108677;1251;105167;-73
2023/03/07 02:54:49;;;;;;;;;;;;;;;-1.82;68.53;95827.32;108922;1250;101854;-73
2023/03/07 02:57:18;;;;;;;;;;;;;;;-1.90;68.59;95831.23;108963;1250;100149;-72
2023/03/07 02:59:46;;;;;;;;;;;;;;;-1.97;68.81;95834.34;108952;1250;96876;-73
2023/03/07 03:02:14;;;;;;;;;;;;;;;-1.97;68.96;95834.14;108650;1251;97848;-73
2023/03/07 03:04:42;;;;;;;;;;;;;;;-1.98;68.92;95835.99;108741;1249;104981;-73
2023/03/07 03:07:10;;;;;;;;;;;;;;;-2.00;69.03;95836.23;108736;1249;101394;-73
2023/03/07 03:09:38;;;;;;;;;;;;;;;-1.98;68.99;95835.86;108989;1250;99908;-73
2023/03/07 03:12:06;;;;;;;;;;;;;;;-1.97;68.96;95837.30;109011;1251;96977;-73
2023/03/07 03:14:35;;;;;;;;;;;;;;;-1.99;69.00;95836.14;109035;1250;96962;-74
2023/03/07 03:17:03;;;;;;;;;;;;;;;-2.01;69.13;95836.70;109041;1251;104837;-74
2023/03/07 03:19:31;;;;;;;;;;;;;;;-2.03;69.03;95836.10;109029;1250;101499;-73
2023/03/07 03:21:59;;;;;;;;;;;;;;;-2.06;68.87;95827.67;108983;1250;99792;-75
2023/03/07 03:24:27;;;;;;;;;;;;;;;-2.10;68.81;95826.10;108983;1251;97204;-73
2023/03/07 03:26:56;;;;;;;;;;;;;;;-2.11;68.96;95827.19;109059;1250;97859;-74
2023/03/07 03:29:25;;;;;;;;;;;;;;;-2.14;68.99;95826.27;109027;1250;105174;-75
2023/03/07 03:31:53;;;;;;;;;;;;;;;-2.18;68.93;95827.42;109018;1250;101440;-74
2023/03/07 03:34:21;;;;;;;;;;;;;;;-2.18;69.10;95824.78;108998;1251;99544;-73
2023/03/07 03:36:49;;;;;;;;;;;;;;;-2.20;69.16;95822.80;108995;1253;96917;-73
2023/03/07 03:39:17;;;;;;;;;;;;;;;-2.21;69.10;95824.44;109050;1250;97064;-74
2023/03/07 03:41:45;;;;;;;;;;;;;;;-2.21;69.34;95827.41;109006;1250;105123;-74
2023/03/07 03:44:13;;;;;;;;;;;;;;;-2.23;69.51;95826.05;109047;1251;101446;-74
2023/03/07 03:46:41;;;;;;;;;;;;;;;-2.26;69.43;95827.77;108680;1251;100172;-73
2023/03/07 03:49:11;;;;;;;;;;;;;;;-2.23;69.51;95824.27;109014;1251;96924;-76
2023/03/07 03:51:39;;;;;;;;;;;;;;;-2.20;69.58;95822.34;108605;1251;97369;-73
2023/03/07 03:54:08;;;;;;;;;;;;;;;-2.17;69.73;95820.70;109006;1249;104971;-73
2023/03/07 03:56:36;;;;;;;;;;;;;;;-2.15;69.69;95819.16;109025;1251;101514;-73
2023/03/07 03:59:04;;;;;;;;;;;;;;;-2.14;69.83;95821.70;108995;1251;100044;-73
2023/03/07 04:01:32;;;;;;;;;;;;;;;-2.14;69.88;95824.45;108988;1251;96907;-76
2023/03/07 04:04:00;;;;;;;;;;;;;;;-2.13;69.91;95826.95;109038;1249;97077;-76
2023/03/07 04:06:29;;;;;;;;;;;;;;;-2.11;69.90;95829.96;109059;1250;104815;-76
2023/03/07 04:08:58;;;;;;;;;;;;;;;-2.10;69.98;95832.84;109012;1251;101203;-75
2023/03/07 04:11:26;;;;;;;;;;;;;;;-2.10;70.01;95833.57;108662;1251;99564;-73
2023/03/07 04:13:54;;;;;;;;;;;;;;;-2.10;70.01;95837.64;108992;1253;96917;-73
2023/03/07 04:16:23;;;;;;;;;;;;;;;-2.09;70.01;95840.15;109039;1251;96993;-73
2023/03/07 04:18:51;;;;;;;;;;;;;;;-2.12;70.11;95839.29;109016;1251;104907;-75
2023/03/07 04:21:20;;;;;;;;;;;;;;;-2.12;70.08;95834.46;109062;1251;101099;-75
2023/03/07 04:23:49;;;;;;;;;;;;;;;-2.08;70.24;95835.84;109018;1251;100048;-73
2023/03/07 04:26:17;;;;;;;;;;;;;;;-2.07;70.34;95834.09;108601;1251;97061;-73
2023/03/07 04:28:45;;;;;;;;;;;;;;;-2.07;70.36;95836.90;108967;1251;96933;-72
2023/03/07 04:31:14;;;;;;;;;;;;;;;-2.05;70.40;95835.95;109021;1250;104742;-72
2023/03/07 04:33:42;;;;;;;;;;;;;;;-2.02;70.44;95832.92;109029;1250;101351;-74
2023/03/07 04:36:11;;;;;;;;;;;;;;;-1.98;70.55;95833.55;108673;1251;98778;-72
2023/03/07 04:38:40;;;;;;;;;;;;;;;-1.98;70.70;95830.11;109044;1250;97187;-73
2023/03/07 04:41:11;;;;;;;;;;;;;;;-2.00;70.66;95829.02;108680;1250;97286;-73
2023/03/07 04:43:39;;;;;;;;;;;;;;;-1.97;70.58;95831.20;108670;1251;106022;-74
2023/03/07 04:46:07;;;;;;;;;;;;;;;-1.93;70.58;95832.09;108999;1250;101315;-73
2023/03/07 04:48:35;;;;;;;;;;;;;;;-1.89;70.52;95832.87;108983;1251;99853;-74
2023/03/07 04:51:04;;;;;;;;;;;;;;;-1.88;70.79;95833.14;109036;1249;96894;-76
2023/03/07 04:53:32;;;;;;;;;;;;;;;-1.88;70.69;95831.52;108735;1249;97018;-75
2023/03/07 04:56:00;;;;;;;;;;;;;;;-1.86;70.66;95830.74;108713;1251;104576;-73
2023/03/07 04:58:29;;;;;;;;;;;;;;;-1.84;70.63;95829.39;108683;1251;101575;-73
2023/03/07 05:00:57;;;;;;;;;;;;;;;-1.83;70.68;95827.44;108926;1249;100013;-74
2023/03/07 05:03:25;;;;;;;;;;;;;;;-1.82;70.79;95829.64;108998;1251;96922;-73
2023/03/07 05:05:53;;;;;;;;;;;;;;;-1.79;70.79;95827.06;109018;1250;96927;-73
2023/03/07 05:08:22;;;;;;;;;;;;;;;-1.77;70.95;95825.41;109011;1251;112874;-73
2023/03/07 05:10:50;;;;;;;;;;;;;;;-1.77;70.96;95820.97;109034;1249;101439;-73
2023/03/07 05:13:18;;;;;;;;;;;;;;;-1.75;70.96;95823.05;109017;1251;99820;-73
2023/03/07 05:15:50;;;;;;;;;;;;;;;-1.72;71.07;95822.91;109000;1251;96923;-74
2023/03/07 05:18:18;;;;;;;;;;;;;;;-1.71;71.08;95827.58;109038;1251;97140;-73
2023/03/07 05:20:46;;;;;;;;;;;;;;;-1.70;70.99;95824.41;109056;1250;105138;-73
2023/03/07 05:23:14;;;;;;;;;;;;;;;-1.68;71.09;95823.83;109035;1249;100583;-73
2023/03/07 05:25:42;;;;;;;;;;;;;;;-1.66;70.99;95827.09;108984;1251;100029;-73
2023/03/07 05:28:10;;;;;;;;;;;;;;;-1.62;70.99;95831.25;108677;1251;97005;-73
2023/03/07 05:30:38;;;;;;;;;;;;;;;-1.58;71.22;95835.46;109048;1251;97789;-73
2023/03/07 05:33:06;;;;;;;;;;;;;;;-1.57;71.28;95832.48;108687;1251;105973;-73
2023/03/07 05:35:34;;;;;;;;;;;;;;;-1.57;71.29;95824.02;108929;1251;101506;-71
2023/03/07 05:38:02;;;;;;;;;;;;;;;-1.55;71.22;95821.52;108649;1251;100145;-73
2023/03/07 05:40:30;;;;;;;;;;;;;;;-1.52;71.37;95823.50;108977;1252;96902;-73
2023/03/07 05:42:58;;;;;;;;;;;;;;;-1.49;71.37;95823.46;108744;1250;97806;-72
2023/03/07 05:45:26;;;;;;;;;;;;;;;-1.48;71.49;95823.83;108631;1251;105287;-74
2023/03/07 05:47:54;;;;;;;;;;;;;;;-1.47;71.49;95825.84;109046;1251;99956;-73
2023/03/07 05:50:22;;;;;;;;;;;;;;;-1.43;71.53;95827.98;108698;1251;100767;-73
2023/03/07 05:52:51;;;;;;;;;;;;;;;-1.40;71.56;95827.63;108971;1251;97153;-73
2023/03/07 05:55:20;;;;;;;;;;;;;;;-1.38;71.61;95827.95;108981;1250;97788;-73
2023/03/07 05:57:48;;;;;;;;;;;;;;;-1.33;71.64;95828.97;109013;1251;104986;-73
2023/03/07 06:00:16;;;;;;;;;;;;;;;-1.28;71.76;95830.89;108886;1251;101254;-75
2023/03/07 06:02:44;;;;;;;;;;;;;;;-1.23;71.73;95825.13;108994;1251;100103;-74
2023/03/07 06:05:13;;;;;;;;;;;;;;;-1.17;71.82;95826.60;109021;1251;97269;-73
2023/03/07 06:07:41;;;;;;;;;;;;;;;-1.15;71.97;95830.27;109026;1250;96954;-74
2023/03/07 06:10:09;;;;;;;;;;;;;;;-1.14;72.02;95833.23;109064;1250;105004;-77
2023/03/07 06:12:37;;;;;;;;;;;;;;;-1.08;71.95;95829.41;109023;1253;101257;-75
2023/03/07 06:15:07;;;;;;;;;;;;;;;-1.01;71.91;95829.87;109000;1249;99837;-73
2023/03/07 06:17:35;;;;;;;;;;;;;;;-0.95;71.91;95833.25;109050;1251;97107;-73
2023/03/07 06:20:04;;;;;;;;;;;;;;;-0.90;71.89;95828.77;108755;1254;97033;-73
2023/03/07 06:22:33;;;;;;;;;;;;;;;-0.87;71.93;95826.44;109034;1251;104792;-75
2023/03/07 06:25:01;;;;;;;;;;;;;;;-0.82;72.15;95823.23;108850;1251;101338;-73
2023/03/07 06:27:32;;;;;;;;;;;;;;;-0.77;72.10;95825.12;108653;1249;99896;-74
2023/03/07 06:30:00;;;;;;;;;;;;;;;-0.74;72.10;95822.73;109017;1249;96894;-73
2023/03/07 06:32:28;;;;;;;;;;;;;;;-0.68;72.07;95825.71;108715;1251;97450;-73
2023/03/07 06:34:56;;;;;;;;;;;;;;;-0.60;72.03;95830.64;108996;1251;104691;-74
2023/03/07 06:37:24;;;;;;;;;;;;;;;-0.52;72.04;95826.89;108702;1251;102512;-74
2023/03/07 06:39:54;;;;;;;;;;;;;;;-0.44;71.99;95824.83;109001;1250;99723;-72
2023/03/07 06:42:22;;;;;;;;;;;;;;;-0.37;71.95;95824.55;108976;1251;96877;-74
2023/03/07 06:44:50;;;;;;;;;;;;;;;-0.29;72.06;95823.84;108713;1250;97021;-75
2023/03/07 06:47:18;;;;;;;;;;;;;;;-0.23;72.03;95822.02;109075;1250;105148;-73
2023/03/07 06:49:46;;;;;;;;;;;;;;;-0.18;71.94;95821.05;109084;1251;101519;-73
2023/03/07 06:52:14;;;;;;;;;;;;;;;-0.13;71.99;95824.92;109016;1250;100132;-73
2023/03/07 06:54:42;;;;;;;;;;;;;;;-0.08;71.94;95822.54;109027;1250;96877;-74
2023/03/07 06:57:10;;;;;;;;;;;;;;;-0.02;71.99;95820.91;109062;1250;97243;-74
2023/03/07 06:59:38;;;;;;;;;;;;;;;0.06;71.87;95818.92;109068;1249;104933;-73
2023/03/07 07:02:06;;;;;;;;;;;;;;;0.13;71.78;95815.83;109056;1251;100621;-73
2023/03/07 07:04:34;;;;;;;;;;;;;;;0.22;71.43;95812.76;109007;1251;100140;-72
2023/03/07 07:07:02;;;;;;;;;;;;;;;0.33;71.23;95810.64;109026;1250;96941;-73
2023/03/07 07:09:30;;;;;;;;;;;;;;;0.45;70.77;95809.48;109068;1251;96939;-73
2023/03/07 07:11:58;;;;;;;;;;;;;;;0.59;70.68;95810.11;109048;1250;104934;-75
2023/03/07 07:14:27;;;;;;;;;;;;;;;0.70;70.50;95811.66;109040;1251;100507;-72
2023/03/07 07:16:55;;;;;;;;;;;;;;;0.81;70.27;95809.52;108675;1251;99463;-74
2023/03/07 07:19:23;;;;;;;;;;;;;;;0.89;70.03;95808.58;108968;1249;96840;-73
2023/03/07 07:21:51;;;;;;;;;;;;;;;0.99;69.84;95809.45;108694;1251;97121;-73
2023/03/07 07:24:19;;;;;;;;;;;;;;;1.11;69.33;95808.16;109065;1250;104333;-72
2023/03/07 07:26:47;;;;;;;;;;;;;;;1.25;69.05;95808.23;108646;1250;101337;-73
2023/03/07 07:29:15;;;;;;;;;;;;;;;1.38;68.80;95808.50;108985;1249;99441;-73
2023/03/07 07:31:43;;;;;;;;;;;;;;;1.51;68.45;95806.88;109006;1250;97118;-74
2023/03/07 07:34:12;;;;;;;;;;;;;;;1.64;68.17;95807.98;108710;1251;97955;-75
2023/03/07 07:36:40;;;;;;;;;;;;;;;1.79;68.07;95805.01;109002;1249;105219;-72
2023/03/07 07:39:09;;;;;;;;;;;;;;;1.95;67.88;95803.70;108938;1251;101748;-75
2023/03/07 07:41:37;;;;;;;;;;;;;;;2.12;67.61;95802.33;108931;1250;99557;-72
2023/03/07 07:44:05;;;;;;;;;;;;;;;2.31;67.31;95794.71;108957;1251;96871;-73
2023/03/07 07:46:33;;;;;;;;;;;;;;;2.51;66.90;95794.56;108980;1250;97027;-73
2023/03/07 07:49:01;;;;;;;;;;;;;;;2.71;66.67;95792.70;109040;1250;103863;-75
2023/03/07 07:51:29;;;;;;;;;;;;;;;2.92;66.38;95784.53;108911;1251;101382;-76
2023/03/07 07:53:57;;;;;;;;;;;;;;;3.08;65.86;95785.17;108813;1251;100164;-73
2023/03/07 07:56:25;;;;;;;;;;;;;;;3.29;65.66;95784.46;108893;1251;96880;-73
2023/03/07 07:58:54;;;;;;;;;;;;;;;3.53;65.49;95778.46;108739;1251;215227;-73
2023/03/07 08:01:23;;;;;;;;;;;;;;;3.69;64.99;95781.20;108944;1251;105000;-73
2023/03/07 08:03:51;;;;;;;;;;;;;;;3.84;64.50;95786.88;108971;1251;101460;-74
2023/03/07 08:06:20;;;;;;;;;;;;;;;4.00;64.06;95782.64;108796;1250;98379;-73
2023/03/07 08:08:49;;;;;;;;;;;;;;;4.16;63.76;95781.20;108937;1250;97371;-75
2023/03/07 08:11:17;;;;;;;;;;;;;;;4.32;63.56;95778.09;108957;1251;97795;-74
2023/03/07 08:13:45;;;;;;;;;;;;;;;4.42;62.99;95781.11;108967;1251;104735;-73
2023/03/07 08:16:14;;;;;;;;;;;;;;;4.52;62.56;95782.25;108700;1250;100022;-73
2023/03/07 08:18:44;;;;;;;;;;;;;;;4.61;61.96;95787.75;108995;1250;98108;-75
2023/03/07 08:21:12;;;;;;;;;;;;;;;4.69;61.69;95793.71;108922;1249;96942;-73
2023/03/07 08:23:40;;;;;;;;;;;;;;;4.79;61.34;95789.83;109023;1249;96935;-73
2023/03/07 08:26:09;;;;;;;;;;;;;;;4.93;60.96;95781.23;109032;1250;105080;-73
2023/03/07 08:28:37;;;;;;;;;;;;;;;5.10;60.84;95784.16;109006;1251;101027;-73
2023/03/07 08:31:06;;;;;;;;;;;;;;;5.26;60.40;95785.77;109012;1250;99857;-73
2023/03/07 08:33:38;;;;;;;;;;;;;;;5.39;60.14;95784.52;108711;1251;96994;-74
2023/03/07 08:36:06;;;;;;;;;;;;;;;5.48;59.76;95779.63;109070;1249;97035;-74
2023/03/07 08:38:35;;;;;;;;;;;;;;;5.60;59.63;95786.73;109095;1250;104811;-73
2023/03/07 08:41:04;;;;;;;;;;;;;;;5.69;58.98;95785.63;109064;1250;101297;-74
2023/03/07 08:43:32;;;;;;;;;;;;;;;5.75;58.86;95786.31;108583;1255;99945;-73
2023/03/07 08:46:00;;;;;;;;;;;;;;;5.76;58.17;95784.42;108273;1256;97066;-73
2023/03/07 08:48:29;;;;;;;;;;;;;;;5.77;57.85;95780.09;108500;1256;97027;-73
2023/03/07 08:50:57;;;;;;;;;;;;;;;5.75;57.66;95778.73;108574;1255;104869;-73
2023/03/07 08:53:25;;;;;;;;;;;;;;;5.69;57.23;95780.14;108328;1255;101417;-73
2023/03/07 08:55:52;;;;;;;;;;;;;;;5.70;57.22;95774.70;108341;1256;100168;-75
2023/03/07 08:58:20;;;;;;;;;;;;;;;5.71;57.12;95773.08;108553;1256;97447;-73
2023/03/07 09:00:48;;;;;;;;;;;;;;;5.70;56.89;95772.06;108578;1256;97009;-73
2023/03/07 09:03:16;;;;;;;;;;;;;;;5.71;56.71;95775.95;108598;1255;104910;-74
2023/03/07 09:05:44;;;;;;;;;;;;;;;5.66;56.39;95779.11;108609;1256;101251;-73
2023/03/07 09:08:13;;;;;;;;;;;;;;;5.59;56.21;95778.20;108581;1255;99961;-72
2023/03/07 09:10:41;;;;;;;;;;;;;;;5.57;56.00;95773.08;108565;1255;96931;-74
2023/03/07 09:13:09;;;;;;;;;;;;;;;5.57;55.88;95773.26;108378;1256;97055;-73
2023/03/07 09:15:40;;;;;;;;;;;;;;;5.51;55.68;95775.20;108898;1250;104514;-73
2023/03/07 09:18:08;;;;;;;;;;;;;;;5.55;55.75;95771.59;109032;1249;101322;-73
2023/03/07 09:20:40;;;;;;;;;;;;;;;5.61;55.62;95767.98;108952;1250;98930;-75
2023/03/07 09:23:09;;;;;;;;;;;;;;;5.66;55.45;95771.09;109006;1250;96920;-74
2023/03/07 09:25:38;;;;;;;;;;;;;;;5.64;55.17;95770.89;109053;1249;97127;-74
2023/03/07 09:28:06;;;;;;;;;;;;;;;5.62;55.18;95766.63;109017;1249;104982;-73
2023/03/07 09:30:34;;;;;;;;;;;;;;;5.59;54.84;95767.88;109068;1250;102088;-73
2023/03/07 09:33:03;;;;;;;;;;;;;;;5.55;54.84;95769.90;109017;1249;99822;-73
2023/03/07 09:35:30;;;;;;;;;;;;;;;5.53;54.55;95759.77;108959;1250;97300;-72
2023/03/07 09:37:58;;;;;;;;;;;;;;;5.57;54.56;95756.48;109029;1249;97257;-73
2023/03/07 09:40:27;;;;;;;;;;;;;;;5.60;54.54;95747.40;108993;1250;105049;-73
2023/03/07 09:43:08;;;;;;;;;;;;;;;5.64;54.44;95748.08;109010;1250;109995;-74
2023/03/07 09:45:52;;;;;;;;;;;;;;;5.67;54.35;95748.33;108999;1250;99880;-73
2023/03/07 09:48:41;;;;;;;;;;;;;;;5.64;53.94;95741.48;108943;1250;97376;-75
2023/03/07 09:51:15;;;;;;;;;;;;;;;5.60;53.74;95740.98;108974;1250;97858;-72
2023/03/07 09:53:51;;;;;;;;;;;;;;;5.65;53.89;95736.27;109045;1250;104897;-72
2023/03/07 09:56:23;;;;;;;;;;;;;;;5.71;53.66;95731.52;109076;1250;101212;-73
2023/03/07 09:58:55;;;;;;;;;;;;;;;5.75;53.56;95734.33;108889;1249;98784;-73
2023/03/07 10:01:26;;;;;;;;;;;;;;;5.76;53.43;95727.73;108928;1250;96916;-72
2023/03/07 10:04:01;;;;;;;;;;;;;;;5.78;53.30;95725.21;108710;1249;97083;-73
2023/03/07 10:06:39;;;;;;;;;;;;;;;5.74;53.05;95728.57;108930;1251;104390;-73
2023/03/07 10:09:12;;;;;;;;;;;;;;;5.68;52.82;95726.11;108943;1250;101307;-72
2023/03/07 10:11:40;;;;;;;;;;;;;;;5.57;52.58;95727.71;108884;1250;99950;-73
2023/03/07 10:14:08;;;;;;;;;;;;;;;5.48;52.32;95722.28;108943;1251;96912;-74
2023/03/07 10:16:42;;;;;;;;;;;;;;;5.47;52.39;95728.70;108967;1250;97028;-74
2023/03/07 10:19:34;;;;;;;;;;;;;;;5.49;52.68;95727.24;109010;1250;104946;-73
2023/03/07 10:22:10;;;;;;;;;;;;;;;5.46;52.59;95729.45;108318;1259;101841;-74
2023/03/07 10:24:43;;;;;;;;;;;;;;;5.40;52.50;95728.36;108309;1257;99950;-73
2023/03/07 10:27:12;;;;;;;;;;;;;;;5.36;52.50;95723.49;108147;1257;97020;-73
2023/03/07 10:29:59;;;;;;;;;;;;;;;5.33;52.22;95725.25;108314;1257;97054;-75
2023/03/07 10:32:35;;;;;;;;;;;;;;;5.27;52.06;95722.89;108345;1257;104843;-73
2023/03/07 10:35:03;;;;;;;;;;;;;;;5.24;52.20;95720.35;108358;1256;101508;-76
2023/03/07 10:37:51;;;;;;;;;;;;;;;5.22;52.15;95720.08;108391;1256;99886;-76
2023/03/07 10:40:44;;;;;;;;;;;;;;;5.24;52.29;95719.33;108342;1256;96961;-74
2023/03/07 10:43:32;;;;;;;;;;;;;;;5.25;52.28;95714.46;108320;1257;96924;-73
2023/03/07 10:46:03;;;;;;;;;;;;;;;5.28;52.23;95713.00;108312;1258;104665;-73
2023/03/07 10:48:31;;;;;;;;;;;;;;;5.36;52.30;95714.23;108209;1256;101296;-73
2023/03/07 10:51:18;;;;;;;;;;;;;;;5.50;52.12;95707.58;108171;1258;100037;-73
2023/03/07 10:53:46;;;;;;;;;;;;;;;5.56;51.95;95704.38;108292;1258;97156;-76
2023/03/07 10:56:15;;;;;;;;;;;;;;;5.58;51.94;95700.43;108290;1258;97078;-74
2023/03/07 10:59:00;;;;;;;;;;;;;;;5.60;51.56;95695.20;108488;1250;103963;-73
2023/03/07 11:01:28;;;;;;;;;;;;;;;5.55;51.72;95694.30;108671;1250;100519;-73
2023/03/07 11:03:59;;;;;;;;;;;;;;;5.53;51.72;95687.50;108927;1250;99989;-73
2023/03/07 11:06:36;;;;;;;;;;;;;;;5.60;51.67;95683.91;108987;1249;96918;-73
2023/03/07 11:09:23;;;;;;;;;;;;;;;5.66;51.77;95687.84;109043;1249;96923;-73
2023/03/07 11:11:51;;;;;;;;;;;;;;;5.68;51.55;95675.83;109001;1249;105261;-73
2023/03/07 11:14:20;;;;;;;;;;;;;;;5.65;51.62;95672.42;109009;1250;99972;-73
2023/03/07 11:16:51;;;;;;;;;;;;;;;5.66;51.68;95671.27;108962;1249;100067;-74
2023/03/07 11:19:44;;;;;;;;;;;;;;;5.63;51.69;95674.20;109010;1249;96843;-73
2023/03/07 11:22:14;;;;;;;;;;;;;;;5.58;51.52;95669.38;108308;1258;97876;-75
2023/03/07 11:24:47;;;;;;;;;;;;;;;5.55;51.63;95668.19;108331;1259;104899;-74
2023/03/07 11:27:21;;;;;;;;;;;;;;;5.54;51.73;95669.49;108318;1258;101568;-73
2023/03/07 11:30:09;;;;;;;;;;;;;;;5.52;51.66;95670.91;108277;1257;99152;-73
2023/03/07 11:32:40;;;;;;;;;;;;;;;5.45;51.47;95669.73;108172;1259;97151;-73
2023/03/07 11:35:14;;;;;;;;;;;;;;;5.38;51.38;95662.85;108166;1259;97465;-73
2023/03/07 11:37:54;;;;;;;;;;;;;;;5.43;51.53;95656.54;108277;1259;105008;-73
2023/03/07 11:40:22;;;;;;;;;;;;;;;5.59;51.53;95652.34;108306;1258;101144;-74
2023/03/07 11:42:50;;;;;;;;;;;;;;;5.69;51.55;95647.20;108179;1259;99019;-73
2023/03/07 11:45:24;;;;;;;;;;;;;;;5.86;51.42;95646.98;108141;1259;96994;-74
2023/03/07 11:47:55;;;;;;;;;;;;;;;5.97;51.24;95646.20;108294;1259;97107;-75
2023/03/07 11:50:25;;;;;;;;;;;;;;;6.08;51.19;95636.16;108298;1259;104999;-72
2023/03/07 11:53:11;;;;;;;;;;;;;;;6.17;50.96;95622.20;108332;1259;101776;-73
2023/03/07 11:55:45;;;;;;;;;;;;;;;6.23;50.69;95624.34;108306;1258;100382;-73
2023/03/07 11:58:34;;;;;;;;;;;;;;;6.30;50.46;95624.05;108270;1258;97075;-73
2023/03/07 12:01:07;;;;;;;;;;;;;;;6.48;50.41;95622.45;108326;1258;96986;-74
2023/03/07 12:03:46;;;;;;;;;;;;;;;6.64;50.26;95621.08;108179;1260;104491;-73
2023/03/07 12:06:24;;;;;;;;;;;;;;;6.64;50.16;95614.86;108292;1258;101717;-75
2023/03/07 12:09:03;;;;;;;;;;;;;;;6.65;50.13;95622.48;108282;1258;99636;-75
2023/03/07 12:11:41;;;;;;;;;;;;;;;6.79;49.94;95621.77;108293;1258;96961;-73
2023/03/07 12:14:09;;;;;;;;;;;;;;;7.12;49.92;95614.40;108332;1257;97022;-74
2023/03/07 12:16:46;;;;;;;;;;;;;;;7.44;49.48;95627.21;108318;1257;104708;-73
2023/03/07 12:19:14;;;;;;;;;;;;;;;7.63;48.66;95612.85;108348;1258;101334;-73
2023/03/07 12:21:54;;;;;;;;;;;;;;;7.70;47.95;95614.90;108316;1258;97729;-75
2023/03/07 12:24:28;;;;;;;;;;;;;;;7.79;47.97;95613.20;108316;1258;96982;-75
2023/03/07 12:27:14;;;;;;;;;;;;;;;7.88;47.68;95616.64;108358;1259;97017;-74
2023/03/07 12:29:46;;;;;;;;;;;;;;;7.85;47.31;95610.41;108230;1259;104262;-73
2023/03/07 12:32:18;;;;;;;;;;;;;;;7.93;47.31;95614.94;108341;1259;101301;-75
2023/03/07 12:34:50;;;;;;;;;;;;;;;8.08;47.38;95616.09;108271;1258;99547;-74
2023/03/07 12:37:44;;;;;;;;;;;;;;;8.11;46.74;95615.29;108325;1258;97114;-73
2023/03/07 12:40:18;;;;;;;;;;;;;;;8.03;46.57;95611.53;108138;1259;97454;-74
2023/03/07 12:42:58;;;;;;;;;;;;;;;8.04;46.63;95602.30;108266;1259;105038;-75
2023/03/07 12:45:28;;;;;;;;;;;;;;;8.17;46.87;95601.87;108293;1259;101273;-73
2023/03/07 12:47:58;;;;;;;;;;;;;;;8.17;46.91;95597.52;108278;1258;100087;-73
2023/03/07 12:50:35;;;;;;;;;;;;;;;8.26;46.98;95604.89;108089;1259;97396;-74
2023/03/07 12:53:06;;;;;;;;;;;;;;;8.35;46.38;95609.96;108291;1259;97076;-75